createdAt,value
2022-09-11T00:01:03.830Z,100567.13
2022-09-11T00:03:31.553Z,100562.69
2022-09-11T00:06:10.716Z,100569.31
2022-09-11T00:08:38.857Z,100565.09
2022-09-11T00:11:11.085Z,100559.09
2022-09-11T00:13:39.477Z,100550.00
2022-09-11T00:16:07.616Z,100561.50
2022-09-11T00:18:38.258Z,100554.16
2022-09-11T00:21:07.283Z,100554.03
2022-09-11T00:23:34.438Z,100557.81
2022-09-11T00:26:02.848Z,100550.69
2022-09-11T00:28:30.800Z,100551.81
2022-09-11T00:31:02.387Z,100553.28
2022-09-11T00:33:29.988Z,100545.72
2022-09-11T00:36:01.221Z,100546.25
2022-09-11T00:38:29.677Z,100555.88
2022-09-11T00:40:58.424Z,100552.00
2022-09-11T00:43:26.854Z,100558.84
2022-09-11T00:46:04.934Z,100556.88
2022-09-11T00:48:34.386Z,100566.69
2022-09-11T00:51:03.903Z,100561.59
2022-09-11T00:53:34.025Z,100564.00
2022-09-11T00:56:03.906Z,100564.28
2022-09-11T00:58:33.964Z,100562.66
2022-09-11T01:01:03.269Z,100569.59
2022-09-11T01:03:32.207Z,100567.56
2022-09-11T01:05:59.516Z,100560.09
2022-09-11T01:08:27.713Z,100556.31
2022-09-11T01:10:57.885Z,100555.78
2022-09-11T01:13:38.096Z,100551.91
2022-09-11T01:16:08.709Z,100550.81
2022-09-11T01:18:48.320Z,100556.09
2022-09-11T01:21:32.585Z,100551.69
2022-09-11T01:24:15.159Z,100552.09
2022-09-11T01:26:45.419Z,100548.66
2022-09-11T01:29:16.128Z,100541.06
2022-09-11T01:31:52.770Z,100540.53
2022-09-11T01:34:31.560Z,100543.97
2022-09-11T01:37:03.486Z,100546.34
2022-09-11T01:39:34.578Z,100550.09
2022-09-11T01:42:07.771Z,100546.19
2022-09-11T01:44:51.884Z,100548.50
2022-09-11T01:47:20.040Z,100548.25
2022-09-11T01:50:19.299Z,100551.06
2022-09-11T01:52:53.335Z,100552.06
2022-09-11T01:55:28.960Z,100550.56
2022-09-11T01:58:03.077Z,100547.25
2022-09-11T02:00:35.615Z,100543.03
2022-09-11T02:03:17.191Z,100541.47
2022-09-11T02:05:49.360Z,100539.97
2022-09-11T02:08:30.004Z,100540.59
2022-09-11T02:11:03.542Z,100542.94
2022-09-11T02:13:34.296Z,100545.41
2022-09-11T02:16:16.726Z,100553.47
2022-09-11T02:19:01.792Z,100540.69
2022-09-11T02:21:29.244Z,100536.13
2022-09-11T02:23:56.825Z,100539.50
2022-09-11T02:26:25.799Z,100554.63
2022-09-11T02:28:53.731Z,100570.84
2022-09-11T02:31:23.355Z,100572.69
2022-09-11T02:33:52.014Z,100581.69
2022-09-11T02:36:31.780Z,100566.31
2022-09-11T02:39:20.577Z,100551.59
2022-09-11T02:41:55.330Z,100544.47
2022-09-11T02:44:23.933Z,100550.09
2022-09-11T02:46:57.028Z,100552.03
2022-09-11T02:49:37.590Z,100548.22
2022-09-11T02:52:24.464Z,100552.56
2022-09-11T02:54:52.034Z,100552.59
2022-09-11T02:57:31.605Z,100553.66
2022-09-11T03:00:01.143Z,100545.75
2022-09-11T03:02:30.658Z,100541.66
2022-09-11T03:04:58.229Z,100539.34
2022-09-11T03:07:25.562Z,100541.84
2022-09-11T03:09:53.156Z,100544.00
2022-09-11T03:12:22.959Z,100544.00
2022-09-11T03:14:51.586Z,100551.03
2022-09-11T03:17:20.005Z,100555.63
2022-09-11T03:19:47.995Z,100574.00
2022-09-11T03:22:15.276Z,100566.41
2022-09-11T03:24:43.150Z,100559.41
2022-09-11T03:27:11.225Z,100569.22
2022-09-11T03:29:42.152Z,100570.44
2022-09-11T03:32:10.886Z,100568.25
2022-09-11T03:34:38.632Z,100567.03
2022-09-11T03:37:05.854Z,100562.53
2022-09-11T03:39:33.619Z,100550.06
2022-09-11T03:42:01.325Z,100556.66
2022-09-11T03:44:29.305Z,100562.19
2022-09-11T03:46:57.437Z,100561.31
2022-09-11T03:49:25.285Z,100556.81
2022-09-11T03:51:52.788Z,100552.66
2022-09-11T03:54:20.982Z,100546.03
2022-09-11T03:56:48.833Z,100551.66
2022-09-11T03:59:16.578Z,100554.66
2022-09-11T04:01:45.214Z,100569.22
2022-09-11T04:04:13.078Z,100567.44
2022-09-11T04:06:43.262Z,100558.22
2022-09-11T04:09:10.842Z,100559.53
2022-09-11T04:11:40.032Z,100563.09
2022-09-11T04:14:14.090Z,100567.00
2022-09-11T04:16:43.374Z,100570.00
2022-09-11T04:19:12.393Z,100574.41
2022-09-11T04:21:42.330Z,100572.97
2022-09-11T04:24:10.146Z,100576.06
2022-09-11T04:26:37.612Z,100573.81
2022-09-11T04:29:13.461Z,100568.78
2022-09-11T04:31:41.399Z,100567.44
2022-09-11T04:34:10.276Z,100573.78
2022-09-11T04:36:38.192Z,100578.19
2022-09-11T04:39:06.611Z,100580.75
2022-09-11T04:41:34.548Z,100591.25
2022-09-11T04:44:05.478Z,100592.50
2022-09-11T04:46:36.462Z,100593.53
2022-09-11T04:49:08.265Z,100593.06
2022-09-11T04:51:36.631Z,100585.47
2022-09-11T04:54:04.728Z,100588.59
2022-09-11T04:56:38.013Z,100594.28
2022-09-11T04:59:09.628Z,100589.22
2022-09-11T05:01:37.906Z,100592.56
2022-09-11T05:04:05.823Z,100599.81
2022-09-11T05:06:33.042Z,100601.00
2022-09-11T05:09:04.670Z,100609.03
2022-09-11T05:11:34.297Z,100615.47
2022-09-11T05:14:02.151Z,100627.53
2022-09-11T05:16:33.353Z,100632.19
2022-09-11T05:19:01.411Z,100634.94
2022-09-11T05:21:28.822Z,100646.88
2022-09-11T05:23:57.863Z,100647.44
2022-09-11T05:26:27.530Z,100649.56
2022-09-11T05:28:56.100Z,100647.28
2022-09-11T05:31:25.420Z,100651.78
2022-09-11T05:33:54.574Z,100658.84
2022-09-11T05:36:22.147Z,100645.91
2022-09-11T05:38:49.343Z,100651.13
2022-09-11T05:41:17.495Z,100651.41
2022-09-11T05:43:44.776Z,100657.41
2022-09-11T05:46:13.214Z,100656.31
2022-09-11T05:48:40.944Z,100660.28
2022-09-11T05:51:11.510Z,100668.38
2022-09-11T05:53:39.211Z,100669.03
2022-09-11T05:56:07.798Z,100668.06
2022-09-11T05:58:53.733Z,100677.50
2022-09-11T06:01:27.804Z,100688.50
2022-09-11T06:04:11.034Z,100694.22
2022-09-11T06:06:39.492Z,100700.19
2022-09-11T06:09:07.449Z,100707.50
2022-09-11T06:11:35.107Z,100709.25
2022-09-11T06:14:03.142Z,100699.28
2022-09-11T06:16:31.744Z,100706.16
2022-09-11T06:19:06.190Z,100699.69
2022-09-11T06:21:33.572Z,100707.16
2022-09-11T06:24:07.519Z,100709.25
2022-09-11T06:26:35.877Z,100700.81
2022-09-11T06:29:03.335Z,100703.22
2022-09-11T06:31:32.037Z,100701.31
2022-09-11T06:33:59.655Z,100706.06
2022-09-11T06:36:27.447Z,100717.53
2022-09-11T06:38:57.485Z,100712.66
2022-09-11T06:41:27.144Z,100724.91
2022-09-11T06:44:00.978Z,100720.03
2022-09-11T06:46:29.829Z,100721.81
2022-09-11T06:48:58.471Z,100720.59
2022-09-11T06:51:28.219Z,100720.19
2022-09-11T06:53:58.033Z,100732.28
2022-09-11T06:56:29.209Z,100731.13
2022-09-11T06:58:56.639Z,100724.53
2022-09-11T07:01:25.950Z,100725.06
2022-09-11T07:04:02.675Z,100726.47
2022-09-11T07:06:32.274Z,100726.22
2022-09-11T07:09:02.655Z,100724.72
2022-09-11T07:11:46.895Z,100726.72
2022-09-11T07:14:14.352Z,100723.44
2022-09-11T07:16:44.419Z,100717.38
2022-09-11T07:19:13.601Z,100720.50
2022-09-11T07:21:41.815Z,100721.84
2022-09-11T07:24:09.267Z,100722.03
2022-09-11T07:26:40.682Z,100723.22
2022-09-11T07:29:15.235Z,100720.84
2022-09-11T07:31:43.960Z,100710.53
2022-09-11T07:34:12.119Z,100716.19
2022-09-11T07:36:39.366Z,100727.00
2022-09-11T07:39:09.457Z,100727.34
2022-09-11T07:41:45.099Z,100733.09
2022-09-11T07:44:18.455Z,100723.34
2022-09-11T07:46:45.651Z,100731.69
2022-09-11T07:49:13.855Z,100729.75
2022-09-11T07:51:43.294Z,100728.97
2022-09-11T07:54:12.950Z,100731.38
2022-09-11T07:56:41.943Z,100737.88
2022-09-11T07:59:11.532Z,100728.97
2022-09-11T08:01:43.108Z,100739.56
2022-09-11T08:04:11.721Z,100740.56
2022-09-11T08:06:40.374Z,100740.75
2022-09-11T08:09:15.118Z,100741.06
2022-09-11T08:11:48.887Z,100745.41
2022-09-11T08:14:18.139Z,100740.88
2022-09-11T08:16:48.440Z,100732.94
2022-09-11T08:19:18.214Z,100738.25
2022-09-11T08:21:48.662Z,100734.06
2022-09-11T08:24:17.150Z,100736.97
2022-09-11T08:26:48.797Z,100740.94
2022-09-11T08:29:18.294Z,100741.25
2022-09-11T08:31:46.151Z,100738.47
2022-09-11T08:34:15.407Z,100744.22
2022-09-11T08:36:42.670Z,100745.22
2022-09-11T08:39:10.302Z,100744.63
2022-09-11T08:41:48.923Z,100740.81
2022-09-11T08:44:30.428Z,100740.88
2022-09-11T08:47:37.224Z,100731.88
2022-09-11T08:50:07.961Z,100727.84
2022-09-11T08:52:36.755Z,100729.56
2022-09-11T08:55:12.914Z,100735.97
2022-09-11T08:57:46.836Z,100736.31
2022-09-11T09:00:19.169Z,100730.31
2022-09-11T09:03:20.877Z,100738.00
2022-09-11T09:06:08.623Z,100741.09
2022-09-11T09:08:50.236Z,100739.25
2022-09-11T09:11:22.996Z,100740.47
2022-09-11T09:13:50.856Z,100740.72
2022-09-11T09:16:28.967Z,100734.56
2022-09-11T09:19:00.823Z,100734.50
2022-09-11T09:21:40.483Z,100732.97
2022-09-11T09:24:19.433Z,100737.91
2022-09-11T09:26:52.284Z,100739.72
2022-09-11T09:29:23.949Z,100739.50
2022-09-11T09:31:53.579Z,100736.28
2022-09-11T09:34:21.985Z,100739.22
2022-09-11T09:36:49.380Z,100740.50
2022-09-11T09:39:18.729Z,100731.16
2022-09-11T09:41:45.820Z,100730.38
2022-09-11T09:44:24.479Z,100734.97
2022-09-11T09:46:56.144Z,100731.13
2022-09-11T09:49:26.042Z,100734.84
2022-09-11T09:51:59.821Z,100729.59
2022-09-11T09:54:31.003Z,100731.66
2022-09-11T09:57:02.431Z,100732.91
2022-09-11T09:59:40.668Z,100737.75
2022-09-11T10:02:07.938Z,100729.06
2022-09-11T10:04:35.307Z,100735.63
2022-09-11T10:07:05.384Z,100730.25
2022-09-11T10:09:46.721Z,100736.81
2022-09-11T10:12:26.661Z,100726.50
2022-09-11T10:15:16.016Z,100731.38
2022-09-11T10:17:46.470Z,100729.63
2022-09-11T10:20:19.617Z,100721.22
2022-09-11T10:22:46.908Z,100723.66
2022-09-11T10:25:15.643Z,100719.03
2022-09-11T10:28:04.613Z,100721.38
2022-09-11T10:30:31.777Z,100721.47
2022-09-11T10:33:03.365Z,100727.47
2022-09-11T10:35:32.004Z,100722.28
2022-09-11T10:38:18.619Z,100720.06
2022-09-11T10:41:02.771Z,100712.59
2022-09-11T10:43:36.666Z,100715.16
2022-09-11T10:46:05.477Z,100699.50
2022-09-11T10:48:33.243Z,100706.31
2022-09-11T10:51:11.799Z,100711.84
2022-09-11T10:53:50.378Z,100710.47
2022-09-11T10:56:17.876Z,100703.38
2022-09-11T10:58:47.359Z,100706.97
2022-09-11T11:01:14.776Z,100698.44
2022-09-11T11:03:42.152Z,100698.63
2022-09-11T11:06:20.102Z,100697.63
2022-09-11T11:08:50.933Z,100698.78
2022-09-11T11:11:22.249Z,100701.16
2022-09-11T11:14:11.490Z,100711.97
2022-09-11T11:16:50.821Z,100706.59
2022-09-11T11:19:43.981Z,100701.75
2022-09-11T11:22:17.097Z,100708.53
2022-09-11T11:25:03.060Z,100706.72
2022-09-11T11:27:38.089Z,100707.19
2022-09-11T11:30:10.620Z,100708.81
2022-09-11T11:32:48.793Z,100702.56
2022-09-11T11:35:34.652Z,100706.44
2022-09-11T11:38:08.912Z,100700.56
2022-09-11T11:40:40.470Z,100706.31
2022-09-11T11:43:10.472Z,100703.78
2022-09-11T11:45:37.741Z,100693.88
2022-09-11T11:48:09.184Z,100697.13
2022-09-11T11:50:40.413Z,100687.25
2022-09-11T11:53:10.388Z,100694.72
2022-09-11T11:55:49.307Z,100691.28
2022-09-11T11:58:27.624Z,100688.31
2022-09-11T12:01:00.175Z,100685.28
2022-09-11T12:03:38.850Z,100687.03
2022-09-11T12:06:08.034Z,100683.44
2022-09-11T12:08:43.535Z,100681.03
2022-09-11T12:11:13.013Z,100686.34
2022-09-11T12:13:44.918Z,100683.78
2022-09-11T12:16:19.192Z,100685.22
2022-09-11T12:19:05.687Z,100682.34
2022-09-11T12:21:38.031Z,100684.22
2022-09-11T12:24:05.149Z,100684.22
2022-09-11T12:26:32.433Z,100683.50
2022-09-11T12:29:12.320Z,100685.53
2022-09-11T12:31:51.382Z,100683.81
2022-09-11T12:34:19.636Z,100679.44
2022-09-11T12:36:50.196Z,100673.09
2022-09-11T12:39:19.409Z,100677.00
2022-09-11T12:41:46.645Z,100675.56
2022-09-11T12:44:30.752Z,100670.97
2022-09-11T12:46:57.946Z,100669.50
2022-09-11T12:49:26.012Z,100668.50
2022-09-11T12:52:01.307Z,100664.19
2022-09-11T12:54:33.421Z,100664.19
2022-09-11T12:57:09.323Z,100667.66
2022-09-11T12:59:41.120Z,100655.75
2022-09-11T13:02:26.213Z,100652.75
2022-09-11T13:04:54.245Z,100658.09
2022-09-11T13:07:35.082Z,100652.31
2022-09-11T13:10:08.139Z,100650.47
2022-09-11T13:12:35.893Z,100650.28
2022-09-11T13:15:03.733Z,100649.56
2022-09-11T13:17:33.080Z,100650.44
2022-09-11T13:20:03.460Z,100648.56
2022-09-11T13:22:31.387Z,100644.31
2022-09-11T13:25:06.374Z,100645.16
2022-09-11T13:27:37.511Z,100645.16
2022-09-11T13:30:05.707Z,100634.97
2022-09-11T13:32:33.634Z,100636.69
2022-09-11T13:35:04.825Z,100630.22
2022-09-11T13:37:40.584Z,100627.63
2022-09-11T13:40:15.561Z,100624.19
2022-09-11T13:42:42.876Z,100625.63
2022-09-11T13:45:15.242Z,100614.97
2022-09-11T13:47:42.470Z,100610.38
2022-09-11T13:50:12.838Z,100620.44
2022-09-11T13:52:41.828Z,100612.88
2022-09-11T13:55:11.296Z,100611.00
2022-09-11T13:58:02.010Z,100606.97
2022-09-11T14:00:43.039Z,100608.97
2022-09-11T14:03:24.598Z,100601.66
2022-09-11T14:05:54.078Z,100599.78
2022-09-11T14:08:25.013Z,100602.38
2022-09-11T14:11:03.469Z,100592.34
2022-09-11T14:13:41.431Z,100593.34
2022-09-11T14:16:17.164Z,100588.03
2022-09-11T14:18:45.517Z,100587.16
2022-09-11T14:21:14.974Z,100581.84
2022-09-11T14:23:49.804Z,100572.94
2022-09-11T14:26:24.224Z,100573.22
2022-09-11T14:29:01.409Z,100563.31
2022-09-11T14:31:36.273Z,100565.03
2022-09-11T14:34:03.546Z,100560.31
2022-09-11T14:36:30.689Z,100559.91
2022-09-11T14:38:58.270Z,100558.19
2022-09-11T14:41:25.609Z,100552.00
2022-09-11T14:43:53.115Z,100556.47
2022-09-11T14:46:20.437Z,100553.88
2022-09-11T14:48:47.641Z,100551.44
2022-09-11T14:51:14.887Z,100551.13
2022-09-11T14:53:43.395Z,100554.13
2022-09-11T14:56:10.837Z,100551.56
2022-09-11T14:58:38.656Z,100553.28
2022-09-11T15:01:05.946Z,100546.81
2022-09-11T15:03:33.157Z,100545.66
2022-09-11T15:06:00.369Z,100539.50
2022-09-11T15:08:27.500Z,100541.22
2022-09-11T15:10:54.659Z,100539.34
2022-09-11T15:13:21.916Z,100540.97
2022-09-11T15:15:51.985Z,100543.53
2022-09-11T15:18:19.217Z,100535.66
2022-09-11T15:20:46.452Z,100536.78
2022-09-11T15:23:13.641Z,100544.09
2022-09-11T15:25:40.988Z,100544.94
2022-09-11T15:28:10.261Z,100534.50
2022-09-11T15:30:37.863Z,100531.19
2022-09-11T15:33:05.106Z,100532.63
2022-09-11T15:35:33.149Z,100536.34
2022-09-11T15:38:00.568Z,100540.81
2022-09-11T15:40:27.875Z,100529.91
2022-09-11T15:42:56.689Z,100531.06
2022-09-11T15:45:24.029Z,100529.03
2022-09-11T15:47:51.380Z,100531.03
2022-09-11T15:50:24.593Z,100522.97
2022-09-11T15:52:51.870Z,100522.97
2022-09-11T15:55:19.111Z,100519.13
2022-09-11T15:57:46.262Z,100519.28
2022-09-11T16:00:14.618Z,100522.97
2022-09-11T16:02:43.006Z,100530.44
2022-09-11T16:05:10.363Z,100526.72
2022-09-11T16:07:37.558Z,100531.75
2022-09-11T16:10:04.914Z,100529.00
2022-09-11T16:12:34.507Z,100522.00
2022-09-11T16:15:02.060Z,100529.16
2022-09-11T16:17:32.324Z,100521.25
2022-09-11T16:19:59.793Z,100523.41
2022-09-11T16:22:30.851Z,100519.97
2022-09-11T16:24:59.381Z,100521.03
2022-09-11T16:27:26.568Z,100522.78
2022-09-11T16:32:41.277Z,100523.75
2022-09-11T16:35:08.730Z,100516.03
2022-09-11T16:37:35.944Z,100518.44
2022-09-11T16:40:03.924Z,100520.72
2022-09-11T16:42:31.658Z,100527.91
2022-09-11T16:44:58.946Z,100532.47
2022-09-11T16:47:26.315Z,100529.91
2022-09-11T16:50:09.156Z,100533.50
2022-09-11T16:52:37.002Z,100528.03
2022-09-11T16:55:05.223Z,100529.75
2022-09-11T16:57:33.380Z,100531.63
2022-09-11T17:00:00.765Z,100523.00
2022-09-11T17:02:27.990Z,100531.44
2022-09-11T17:04:55.173Z,100522.09
2022-09-11T17:07:23.793Z,100532.81
2022-09-11T17:09:50.989Z,100530.22
2022-09-11T17:12:18.282Z,100527.78
2022-09-11T17:14:45.519Z,100538.81
2022-09-11T17:17:12.688Z,100530.91
2022-09-11T17:19:39.878Z,100530.19
2022-09-11T17:22:08.463Z,100534.19
2022-09-11T17:24:36.411Z,100538.31
2022-09-11T17:27:03.774Z,100533.28
2022-09-11T17:29:30.939Z,100528.94
2022-09-11T17:32:23.740Z,100528.75
2022-09-11T17:34:46.980Z,100536.72
2022-09-11T17:37:14.733Z,100526.34
2022-09-11T17:39:42.625Z,100531.19
2022-09-11T17:42:13.139Z,100526.28
2022-09-11T17:44:43.388Z,100534.44
2022-09-11T17:47:10.617Z,100533.84
2022-09-11T17:49:37.765Z,100530.53
2022-09-11T17:52:05.126Z,100530.78
2022-09-11T17:54:32.310Z,100531.06
2022-09-11T17:57:01.553Z,100538.50
2022-09-11T17:59:28.729Z,100537.03
2022-09-11T18:01:56.087Z,100541.59
2022-09-11T18:04:23.407Z,100539.16
2022-09-11T18:06:51.287Z,100533.84
2022-09-11T18:09:19.817Z,100540.88
2022-09-11T18:11:48.030Z,100541.22
2022-09-11T18:14:15.550Z,100543.66
2022-09-11T18:16:47.239Z,100549.63
2022-09-11T18:19:15.703Z,100563.22
2022-09-11T18:21:46.669Z,100554.22
2022-09-11T18:24:19.903Z,100558.50
2022-09-11T18:26:51.543Z,100557.63
2022-09-11T18:29:44.197Z,100552.69
2022-09-11T18:32:11.376Z,100558.47
2022-09-11T18:34:38.765Z,100559.72
2022-09-11T18:37:07.249Z,100565.72
2022-09-11T18:39:34.583Z,100565.63
2022-09-11T18:42:02.081Z,100571.06
2022-09-11T18:44:29.272Z,100571.34
2022-09-11T18:46:56.439Z,100580.50
2022-09-11T18:49:23.618Z,100579.53
2022-09-11T18:51:51.118Z,100572.13
2022-09-11T18:54:20.964Z,100569.59
2022-09-11T18:56:49.414Z,100580.69
2022-09-11T18:59:16.669Z,100581.44
2022-09-11T19:01:43.971Z,100580.19
2022-09-11T19:04:12.192Z,100591.09
2022-09-11T19:06:39.835Z,100591.94
2022-09-11T19:09:12.379Z,100590.59
2022-09-11T19:11:39.691Z,100596.53
2022-09-11T19:14:08.382Z,100607.41
2022-09-11T19:16:36.166Z,100610.63
2022-09-11T19:19:03.739Z,100614.81
2022-09-11T19:21:30.952Z,100612.97
2022-09-11T19:24:00.591Z,100611.81
2022-09-11T19:26:29.976Z,100614.91
2022-09-11T19:28:57.384Z,100618.69
2022-09-11T19:31:27.336Z,100625.97
2022-09-11T19:33:56.639Z,100630.28
2022-09-11T19:36:25.917Z,100632.50
2022-09-11T19:38:55.865Z,100630.13
2022-09-11T19:41:24.040Z,100633.66
2022-09-11T19:43:51.310Z,100637.31
2022-09-11T19:46:19.790Z,100647.13
2022-09-11T19:48:48.785Z,100644.88
2022-09-11T19:51:17.541Z,100646.78
2022-09-11T19:53:45.128Z,100642.91
2022-09-11T19:56:12.920Z,100650.75
2022-09-11T19:58:40.512Z,100656.97
2022-09-11T20:01:09.304Z,100652.84
2022-09-11T20:03:37.156Z,100658.28
2022-09-11T20:06:05.033Z,100668.59
2022-09-11T20:08:33.048Z,100660.56
2022-09-11T20:11:05.022Z,100662.00
2022-09-11T20:13:32.270Z,100663.41
2022-09-11T20:16:06.591Z,100671.41
2022-09-11T20:18:33.898Z,100670.34
2022-09-11T20:21:02.224Z,100674.22
2022-09-11T20:23:29.687Z,100676.41
2022-09-11T20:26:12.517Z,100682.03
2022-09-11T20:28:42.290Z,100683.88
2022-09-11T20:31:13.730Z,100688.56
2022-09-11T20:33:41.555Z,100682.38
2022-09-11T20:36:09.105Z,100681.75
2022-09-11T20:38:36.401Z,100683.69
2022-09-11T20:41:07.106Z,100679.91
2022-09-11T20:43:34.387Z,100686.50
2022-09-11T20:46:01.769Z,100679.59
2022-09-11T20:48:29.121Z,100684.44
2022-09-11T20:51:01.400Z,100686.63
2022-09-11T20:53:28.805Z,100685.22
2022-09-11T20:56:00.535Z,100693.78
2022-09-11T20:58:28.272Z,100697.88
2022-09-11T21:00:57.395Z,100694.00
2022-09-11T21:03:25.399Z,100705.34
2022-09-11T21:05:52.652Z,100699.06
2022-09-11T21:08:19.932Z,100705.59
2022-09-11T21:10:47.257Z,100705.59
2022-09-11T21:13:14.709Z,100708.59
2022-09-11T21:15:45.878Z,100701.97
2022-09-11T21:18:13.834Z,100714.00
2022-09-11T21:20:41.212Z,100716.16
2022-09-11T21:23:08.907Z,100718.56
2022-09-11T21:25:40.379Z,100720.38
2022-09-11T21:28:07.592Z,100716.72
2022-09-11T21:30:37.635Z,100718.22
2022-09-11T21:33:04.917Z,100725.78
2022-09-11T21:35:32.078Z,100730.78
2022-09-11T21:37:59.520Z,100725.94
2022-09-11T21:40:26.796Z,100740.31
2022-09-11T21:42:54.032Z,100738.78
2022-09-11T21:45:21.216Z,100742.41
2022-09-11T21:47:48.597Z,100739.59
2022-09-11T21:50:16.117Z,100750.53
2022-09-11T21:52:43.313Z,100746.38
2022-09-11T21:55:11.426Z,100748.34
2022-09-11T21:57:38.604Z,100746.50
2022-09-11T22:00:09.163Z,100745.28
2022-09-11T22:02:36.349Z,100748.72
2022-09-11T22:05:04.130Z,100754.03
2022-09-11T22:07:32.128Z,100749.94
2022-09-11T22:09:59.704Z,100750.16
2022-09-11T22:12:26.976Z,100747.88
2022-09-11T22:14:54.959Z,100753.31
2022-09-11T22:17:22.684Z,100754.50
2022-09-11T22:19:50.214Z,100756.72
2022-09-11T22:22:17.499Z,100757.72
2022-09-11T22:24:44.707Z,100761.38
2022-09-11T22:27:12.171Z,100757.94
2022-09-11T22:29:41.166Z,100763.81
2022-09-11T22:32:11.195Z,100770.38
2022-09-11T22:34:38.451Z,100759.19
2022-09-11T22:37:06.229Z,100760.16
2022-09-11T22:39:33.474Z,100762.31
2022-09-11T22:42:00.742Z,100766.94
2022-09-11T22:44:28.054Z,100767.81
2022-09-11T22:46:55.256Z,100766.28
2022-09-11T22:49:22.490Z,100765.75
2022-09-11T22:51:49.770Z,100765.81
2022-09-11T22:54:17.047Z,100769.13
2022-09-11T22:56:44.327Z,100770.09
2022-09-11T22:59:11.550Z,100766.22
2022-09-11T23:01:38.777Z,100766.53
2022-09-11T23:04:06.033Z,100773.16
2022-09-11T23:06:51.569Z,100771.44
2022-09-11T23:09:18.836Z,100774.34
2022-09-11T23:11:46.338Z,100774.53
2022-09-11T23:14:14.691Z,100769.91
2022-09-11T23:16:42.284Z,100779.97
2022-09-11T23:19:11.845Z,100767.59
2022-09-11T23:21:39.055Z,100771.56
2022-09-11T23:24:06.332Z,100769.84
2022-09-11T23:26:34.181Z,100774.50
2022-09-11T23:29:02.276Z,100772.91
2022-09-11T23:31:31.121Z,100768.56
2022-09-11T23:33:59.525Z,100774.84
2022-09-11T23:36:27.490Z,100773.00
2022-09-11T23:38:54.964Z,100775.06
2022-09-11T23:41:22.420Z,100765.88
2022-09-11T23:43:49.739Z,100774.84
2022-09-11T23:46:17.345Z,100766.84
2022-09-11T23:48:44.681Z,100776.34
2022-09-11T23:51:12.154Z,100775.47
2022-09-11T23:53:40.290Z,100773.63
2022-09-11T23:56:07.691Z,100777.09
2022-09-11T23:58:39.288Z,100772.47
